地図

経路データ

SID SEASON NUMBER BASIN SUBBASIN NAME ISO_TIME NATURE LAT LON WMO_WIND WMO_PRES WMO_AGENCY TRACK_TYPE DIST2LAND LANDFALL IFLAG USA_AGENCY USA_ATCF_ID USA_LAT USA_LON USA_RECORD USA_STATUS USA_WIND USA_PRES USA_SSHS USA_R34_NE USA_R34_SE USA_R34_SW USA_R34_NW USA_R50_NE USA_R50_SE USA_R50_SW USA_R50_NW USA_R64_NE USA_R64_SE USA_R64_SW USA_R64_NW USA_POCI USA_ROCI USA_RMW USA_EYE TOKYO_LAT TOKYO_LON TOKYO_GRADE TOKYO_WIND TOKYO_PRES TOKYO_R50_DIR TOKYO_R50_LONG TOKYO_R50_SHORT TOKYO_R30_DIR TOKYO_R30_LONG TOKYO_R30_SHORT TOKYO_LAND CMA_LAT CMA_LON CMA_CAT CMA_WIND CMA_PRES HKO_LAT HKO_LON HKO_CAT HKO_WIND HKO_PRES NEWDELHI_LAT NEWDELHI_LON NEWDELHI_GRADE NEWDELHI_WIND NEWDELHI_PRES NEWDELHI_CI NEWDELHI_DP NEWDELHI_POCI REUNION_LAT REUNION_LON REUNION_TYPE REUNION_WIND REUNION_PRES REUNION_TNUM REUNION_CI REUNION_RMW REUNION_R34_NE REUNION_R34_SE REUNION_R34_SW REUNION_R34_NW REUNION_R50_NE REUNION_R50_SE REUNION_R50_SW REUNION_R50_NW REUNION_R64_NE REUNION_R64_SE REUNION_R64_SW REUNION_R64_NW BOM_LAT BOM_LON BOM_TYPE BOM_WIND BOM_PRES BOM_TNUM BOM_CI BOM_RMW BOM_R34_NE BOM_R34_SE BOM_R34_SW BOM_R34_NW BOM_R50_NE BOM_R50_SE BOM_R50_SW BOM_R50_NW BOM_R64_NE BOM_R64_SE BOM_R64_SW BOM_R64_NW BOM_ROCI BOM_POCI BOM_EYE BOM_POS_METHOD BOM_PRES_METHOD NADI_LAT NADI_LON NADI_CAT NADI_WIND NADI_PRES WELLINGTON_LAT WELLINGTON_LON WELLINGTON_WIND WELLINGTON_PRES DS824_LAT DS824_LON DS824_STAGE DS824_WIND DS824_PRES TD9636_LAT TD9636_LON TD9636_STAGE TD9636_WIND TD9636_PRES TD9635_LAT TD9635_LON TD9635_WIND TD9635_PRES TD9635_ROCI NEUMANN_LAT NEUMANN_LON NEUMANN_CLASS NEUMANN_WIND NEUMANN_PRES MLC_LAT MLC_LON MLC_CLASS MLC_WIND MLC_PRES USA_GUST BOM_GUST BOM_GUST_PER REUNION_GUST REUNION_GUST_PER USA_SEAHGT USA_SEARAD_NE USA_SEARAD_SE USA_SEARAD_SW USA_SEARAD_NW STORM_SPEED STORM_DIR
1996365S15137 1997 128 SP EA RACHEL 1996-12-30 00:00:00 TS -14.9000 137.100 main 68 55 O___________O_ jtwc_sh SH151997 -14.9000 137.100 15 -1 -14.9000 137.100 TC 15 6 289
1996365S15137 1997 128 SP EA RACHEL 1996-12-30 03:00:00 TS -14.8001 136.802 main 55 44 P___________P_ SH151997 -14.8001 136.802 15 -1 -14.8001 136.802 TC 15 6 289
1996365S15137 1997 128 SP EA RACHEL 1996-12-30 06:00:00 TS -14.7000 136.500 main 46 44 O___________O_ jtwc_sh SH151997 -14.7000 136.500 15 -1 -14.7000 136.500 TC 15 6 289
1996365S15137 1997 128 SP EA RACHEL 1996-12-30 09:00:00 TS -14.6000 136.193 main 46 31 P___________P_ SH151997 -14.6000 136.193 15 -1 -14.6000 136.193 TC 15 6 289
1996365S15137 1997 128 SP EA RACHEL 1996-12-30 12:00:00 TS -14.5000 135.900 main 31 0 O___________O_ jtwc_sh SH151997 -14.5000 135.900 15 -1 -14.5000 135.900 TC 15 6 290
1996365S15137 1997 128 SP EA RACHEL 1996-12-30 15:00:00 TS -14.4075 135.635 main 0 0 P___________P_ SH151997 -14.4075 135.635 15 -1 -14.4075 135.635 TC 15 5 292
1996365S15137 1997 128 SP EA RACHEL 1996-12-30 18:00:00 TS -14.3000 135.400 main 0 0 O___________O_ jtwc_sh SH151997 -14.3000 135.400 15 -1 -14.3000 135.400 TC 15 5 299
1996365S15137 1997 128 SP EA RACHEL 1996-12-30 21:00:00 TS -14.1650 135.193 main 0 0 P___________P_ SH151997 -14.1650 135.193 15 -1 -14.1650 135.193 TC 15 5 308
1996365S15137 1997 128 SP EA RACHEL 1996-12-31 00:00:00 TS -14.0000 135.000 main 0 0 O___________O_ jtwc_sh SH151997 -14.0000 135.000 15 -1 -14.0000 135.000 TC 15 5 314
1996365S15137 1997 128 SI WA RACHEL 1996-12-31 03:00:00 TS -13.8075 134.808 main 0 0 P___________P_ SH151997 -13.8075 134.808 17 -1 -13.8075 134.808 TC 17 6 316
1996365S15137 1997 128 SI WA RACHEL 1996-12-31 06:00:00 TS -13.6000 134.600 main 0 0 O___________O_ jtwc_sh SH151997 -13.6000 134.600 20 -1 -13.6000 134.600 TC 20 6 313
1996365S15137 1997 128 SI WA RACHEL 1996-12-31 09:00:00 TS -13.4000 134.350 main 0 0 P___________P_ SH151997 -13.4000 134.350 20 -1 -13.4000 134.350 TC 20 6 309
1996365S15137 1997 128 SI WA RACHEL 1996-12-31 12:00:00 TS -13.2000 134.100 main 0 0 O___________O_ jtwc_sh SH151997 -13.2000 134.100 20 -1 -13.2000 134.100 TC 20 6 312
1996365S15137 1997 128 SI WA RACHEL 1996-12-31 15:00:00 TS -12.9925 133.893 main 0 0 P___________P_ SH151997 -12.9925 133.893 20 -1 -12.9925 133.893 TC 20 6 316
1996365S15137 1997 128 SI WA RACHEL 1996-12-31 18:00:00 TS -12.8000 133.700 main 0 0 O___________O_ jtwc_sh SH151997 -12.8000 133.700 20 -1 -12.8000 133.700 TC 20 5 312
1996365S15137 1997 128 SI WA RACHEL 1996-12-31 21:00:00 TS -12.6425 133.493 main 0 0 P___________P_ SH151997 -12.6425 133.493 22 -1 -12.6425 133.493 TC 22 5 308
1996365S15137 1997 128 SI WA RACHEL 1997-01-01 00:00:00 TS -12.5000 133.300 20 1002 bom main 0 0 O_____O_____O_ jtwc_sh SH151997 -12.5000 133.300 25 -1 -12.5000 133.300 20 20 1002 -12.5000 133.300 TC 25 5 311
1996365S15137 1997 128 SI WA RACHEL 1997-01-01 03:00:00 TS -12.3500 133.144 main 0 0 P_____P_____P_ SH151997 -12.3500 133.143 25 -1 -12.3500 133.147 20 22 1001 -12.3500 133.143 TC 25 4 316
1996365S15137 1997 128 SI WA RACHEL 1997-01-01 06:00:00 TS -12.2000 133.000 25 1000 bom main 0 0 O_____O_____O_ jtwc_sh SH151997 -12.2000 133.000 25 -1 -12.2000 133.000 20 25 1000 -12.2000 133.000 TC 25 4 317
1996365S15137 1997 128 SI WA RACHEL 1997-01-01 09:00:00 TS -12.0500 132.858 main 0 0 P_____P_____P_ SH151997 -12.0500 132.858 25 -1 -12.0500 132.858 20 25 1000 -12.0500 132.858 TC 25 4 316
1996365S15137 1997 128 SI WA RACHEL 1997-01-01 12:00:00 TS -11.9000 132.700 25 1000 bom main 0 0 O_____O_____O_ jtwc_sh SH151997 -11.9000 132.700 25 -1 -11.9000 132.700 20 25 1000 -11.9000 132.700 TC 25 5 311
1996365S15137 1997 128 SI WA RACHEL 1997-01-01 15:00:00 TS -11.7500 132.508 main 15 10 P_____P_____P_ SH151997 -11.7500 132.508 25 -1 -11.7500 132.508 20 25 1000 -11.7500 132.508 TC 25 5 308
1996365S15137 1997 128 SI WA RACHEL 1997-01-01 18:00:00 TS -11.6000 132.300 25 1000 bom main 15 0 O_____O_____O_ jtwc_sh SH151997 -11.6000 132.300 25 -1 -11.6000 132.300 20 25 1000 2.00000 -11.6000 132.300 TC 25 5 308
1996365S15137 1997 128 SI WA RACHEL 1997-01-01 21:00:00 TS -11.4425 132.108 main 0 0 P_____P_____P_ SH151997 -11.4425 132.108 27 -1 -11.4425 132.108 20 25 1000 -11.4425 132.108 TC 27 5 308
1996365S15137 1997 128 SI WA RACHEL 1997-01-02 00:00:00 TS -11.3000 131.900 25 1000 bom main 0 0 O_____O_____O_ jtwc_sh SH151997 -11.3000 131.900 30 -1 -11.3000 131.900 20 25 1000 2.00000 -11.3000 131.900 TC 30 5 300
1996365S15137 1997 128 SI WA RACHEL 1997-01-02 03:00:00 TS -11.1850 131.658 main 24 24 P_____P_____P_ SH151997 -11.1850 131.658 30 -1 -11.1850 131.658 20 25 999 -11.1850 131.658 TC 30 5 292
1996365S15137 1997 128 SI WA RACHEL 1997-01-02 06:00:00 TS -11.1000 131.400 25 998 bom main 24 22 O_____O_____O_ jtwc_sh SH151997 -11.1000 131.400 30 -1 -11.1000 131.400 20 25 998 2.00000 -11.1000 131.400 TC 30 5 289
1996365S15137 1997 128 SI WA RACHEL 1997-01-02 09:00:00 TS -11.0224 131.167 main 33 33 P_____P_____P_ SH151997 -11.0199 131.165 30 -1 -11.0274 131.172 20 27 997 -11.0199 131.165 TC 30 5 282
1996365S15137 1997 128 SI WA RACHEL 1997-01-02 12:00:00 TS -11.0000 130.900 30 996 bom main 40 33 O_____O_____O_ jtwc_sh SH151997 -11.0000 130.900 30 -1 -11.0000 130.900 20 30 996 2.50000 -11.0000 130.900 TC 30 6 271
1996365S15137 1997 128 SI WA RACHEL 1997-01-02 15:00:00 TS -11.0113 130.536 main 33 22 P_____P_____P_ SH151997 -11.0550 130.565 32 -1 -10.9240 130.479 20 30 996 -11.0550 130.565 TC 32 7 257
1996365S15137 1997 128 SI WA RACHEL 1997-01-02 18:00:00 TS -11.1667 130.167 30 996 bom main 22 15 O_____O_____O_ jtwc_sh SH151997 -11.2000 130.200 35 0 -11.1000 130.100 20 30 996 2.50000 -11.2000 130.200 TC 35 8 232
1996365S15137 1997 128 SI WA RACHEL 1997-01-02 21:00:00 TS -11.5183 129.872 35 992 bom main 21 21 P_____O_____P_ SH151997 -11.4274 129.857 37 0 -11.7000 129.900 30 35 992 3.00000 214 -11.4274 129.857 TC 37 9 224
1996365S15137 1997 128 SI WA RACHEL 1997-01-03 00:00:00 TS -11.8333 129.500 40 990 bom main 65 65 O_____O_____O_ jtwc_sh SH151997 -11.7000 129.500 40 0 -12.1000 129.500 30 40 990 3.00000 241 1010 -11.7000 129.500 TC 40 10 233
1996365S15137 1997 128 SI WA RACHEL 1997-01-03 03:00:00 TS -12.1352 129.042 main 124 124 P_____P_____P_ SH151997 -11.9425 129.100 42 0 -12.5206 128.927 30 42 989 227 -11.9425 129.100 TC 42 11 237
1996365S15137 1997 128 SI WA RACHEL 1997-01-03 06:00:00 TS -12.4333 128.567 45 988 bom main 176 164 O_____O_____O_ jtwc_sh SH151997 -12.2000 128.700 45 0 -12.9000 128.300 30 45 988 3.00000 214 -12.2000 128.700 TC 45 11 237
1996365S15137 1997 128 SI WA RACHEL 1997-01-03 09:00:00 TS -12.7200 128.121 main 164 117 P_____P_____P_ SH151997 -12.4999 128.350 47 0 -13.1604 127.664 30 45 987 187 -12.4999 128.350 TC 47 10 234
1996365S15137 1997 128 SI WA RACHEL 1997-01-03 12:00:00 TS -13.0000 127.767 45 986 bom main 117 77 O_____O_____O_ jtwc_sh SH151997 -12.8000 128.000 50 0 -13.4000 127.300 30 45 986 3.00000 160 -12.8000 128.000 TC 50 8 226
1996365S15137 1997 128 SI WA RACHEL 1997-01-03 15:00:00 TS -13.2716 127.543 50 984 bom main 70 35 P_____O_____P_ SH151997 -13.0574 127.615 52 0 -13.7000 127.400 30 50 984 3.50000 160 -13.0574 127.615 TC 52 8 229
1996365S15137 1997 128 SI WA RACHEL 1997-01-03 18:00:00 TS -13.5000 127.167 50 982 bom main 35 22 O_____O_____O_ jtwc_sh SH151997 -13.3000 127.200 55 0 -13.9000 127.100 30 50 982 3.50000 129 -13.3000 127.200 TC 55 9 245
1996365S15137 1997 128 SI WA RACHEL 1997-01-03 21:00:00 TS -13.6509 126.718 main 24 24 P_____P_____P_ SH151997 -13.5500 126.757 55 0 -13.8528 126.639 30 50 984 144 -13.5500 126.757 TC 55 9 249
1996365S15137 1997 128 SI WA RACHEL 1997-01-03 22:00:00 TS -13.7222 126.570 50 985 bom main 31 11 P_____V_____P_ SH151997 -13.6333 126.605 55 0 -13.9000 126.500 30 50 985 3.50000 149 -13.6333 126.605 TC 55 10 235
1996365S15137 1997 128 SI WA RACHEL 1997-01-04 00:00:00 TS -13.9333 126.300 45 988 bom main 11 0 O_____O_____O_ jtwc_sh SH151997 -13.8000 126.300 55 0 -14.2000 126.300 30 45 988 160 1008 -13.8000 126.300 TC 55 10 233
1996365S15137 1997 128 SI WA RACHEL 1997-01-04 01:00:00 TS -14.0187 126.163 45 988 bom main 10 0 P_____V_____P_ SH151997 -13.8781 126.145 54 0 -14.3000 126.200 30 45 988 160 -13.8781 126.145 TC 54 10 239
1996365S15137 1997 128 SI WA RACHEL 1997-01-04 03:00:00 TS -14.1790 125.875 main 15 0 P_____P_____P_ SH151997 -14.0350 125.835 52 0 -14.4670 125.955 30 43 989 160 -14.0350 125.835 TC 52 10 240
1996365S15137 1997 128 SI WA RACHEL 1997-01-04 06:00:00 TS -14.4333 125.433 40 992 bom main 21 0 O_____O_____O_ jtwc_sh SH151997 -14.3000 125.400 50 0 -14.7000 125.500 30 40 992 160 -14.3000 125.400 TC 50 10 235
1996365S15137 1997 128 SI WA RACHEL 1997-01-04 09:00:00 TS -14.7616 125.023 40 994 bom main 21 10 P_____O_____P_ SH151997 -14.6424 125.035 47 0 -15.0000 125.000 30 40 994 133 -14.6424 125.035 TC 47 10 224
1996365S15137 1997 128 SI WA RACHEL 1997-01-04 12:00:00 TS -15.1745 124.697 main 10 10 O_____P_____O_ jtwc_sh SH151997 -15.0000 124.700 45 0 -15.5235 124.691 30 36 994 133 -15.0000 124.700 TC 45 10 217
1996365S15137 1997 128 SI WA RACHEL 1997-01-04 13:00:00 TS -15.3055 124.591 35 995 bom main 15 11 P_____O_____P_ SH151997 -15.1083 124.586 45 0 -15.7000 124.600 30 35 995 133 -15.1083 124.586 TC 45 10 225
1996365S15137 1997 128 SI WA RACHEL 1997-01-04 15:00:00 TS -15.5119 124.353 main 11 10 P_____P_____P_ SH151997 -15.3149 124.357 45 0 -15.9059 124.343 30 35 994 133 -15.3149 124.357 TC 45 9 233
1996365S15137 1997 128 SI WA RACHEL 1997-01-04 18:00:00 TS -15.7533 123.965 main 48 24 O_____P_____O_ jtwc_sh SH151997 -15.6000 124.000 45 0 -16.0599 123.895 30 37 993 133 -15.6000 124.000 TC 45 9 240
1996365S15137 1997 128 SI WA RACHEL 1997-01-04 21:00:00 TS -15.9645 123.543 main 30 30 P_____P_____P_ SH151997 -15.8725 123.607 47 0 -16.1486 123.414 30 38 993 133 -15.8725 123.607 TC 47 9 243
1996365S15137 1997 128 SI WA RACHEL 1997-01-05 00:00:00 TS -16.1693 123.115 main 35 33 O_____P_____O_ jtwc_sh SH151997 -16.1000 123.200 50 0 -16.3078 122.945 30 39 992 133 -16.1000 123.200 TC 50 9 244
1996365S15137 1997 128 SI WA RACHEL 1997-01-05 01:00:00 TS -16.2357 122.974 40 992 bom main 33 15 P_____O_____P_ SH151997 -16.1535 123.061 50 0 -16.4000 122.800 30 40 992 3.00000 133 1008 -16.1535 123.061 TC 50 9 241
1996365S15137 1997 128 SI WA RACHEL 1997-01-05 03:00:00 TS -16.3881 122.698 main 24 24 P_____P_____P_ SH151997 -16.2425 122.785 52 0 -16.6794 122.524 30 40 992 133 -16.2425 122.785 TC 52 9 240
1996365S15137 1997 128 SI WA RACHEL 1997-01-05 04:00:00 TS -16.4581 122.567 40 992 bom main 24 30 P_____O_____P_ SH151997 -16.2872 122.651 53 0 -16.8000 122.400 30 40 992 3.00000 133 -16.2872 122.651 TC 53 8 241
1996365S15137 1997 128 SI WA RACHEL 1997-01-05 06:00:00 TS -16.5840 122.329 main 39 39 O_____P_____O_ jtwc_sh SH151997 -16.4000 122.400 55 0 -16.9521 122.187 30 40 990 133 -16.4000 122.400 TC 55 8 239
1996365S15137 1997 128 SI WA RACHEL 1997-01-05 07:00:00 TS -16.6587 122.224 40 990 bom main 39 39 P_____O_____P_ SH151997 -16.4881 122.286 55 0 -17.0000 122.100 30 40 990 3.00000 133 -16.4881 122.286 TC 55 7 230
1996365S15137 1997 128 SI WA RACHEL 1997-01-05 09:00:00 TS -16.8190 122.039 main 46 38 P_____P_____P_ SH151997 -16.6924 122.078 55 0 -17.0721 121.961 30 40 990 133 -16.6924 122.078 TC 55 7 227
1996365S15137 1997 128 SI WA RACHEL 1997-01-05 10:00:00 TS -16.8996 121.954 40 990 bom main 38 43 P_____O_____P_ SH151997 -16.7994 121.981 55 0 -17.1000 121.900 30 40 990 3.00000 133 -16.7994 121.981 TC 55 7 226
1996365S15137 1997 128 SI WA RACHEL 1997-01-05 12:00:00 TS -17.0556 121.789 main 48 48 O_____P_____O_ jtwc_sh SH151997 -17.0000 121.800 55 0 -17.1667 121.767 30 43 988 133 -17.0000 121.800 TC 55 6 227
1996365S15137 1997 128 SI WA RACHEL 1997-01-05 13:00:00 TS -17.1187 121.707 45 988 bom main 57 54 P_____O_____P_ SH151997 -17.0781 121.711 55 0 -17.2000 121.700 30 45 988 3.00000 133 -17.0781 121.711 TC 55 6 232
1996365S15137 1997 128 SI WA RACHEL 1997-01-05 15:00:00 TS -17.2295 121.550 main 64 64 P_____P_____P_ SH151997 -17.2149 121.542 55 0 -17.2588 121.567 30 45 986 133 -17.2149 121.542 TC 55 6 234
1996365S15137 1997 128 SI WA RACHEL 1997-01-05 16:00:00 TS -17.2850 121.474 45 986 bom main 71 71 P_____O_____P_ SH151997 -17.2775 121.461 55 0 -17.3000 121.500 30 45 986 3.00000 133 -17.2775 121.461 TC 55 6 230
1996365S15137 1997 128 SI WA RACHEL 1997-01-05 18:00:00 TS -17.4093 121.322 main 87 85 O_____P_____O_ jtwc_sh SH151997 -17.4000 121.300 55 0 -17.4279 121.367 30 48 985 133 -17.4000 121.300 TC 55 6 228
1996365S15137 1997 128 SI WA RACHEL 1997-01-05 19:00:00 TS -17.4795 121.244 50 985 bom main 96 95 P_____O_____P_ SH151997 -17.4693 121.217 55 0 -17.5000 121.300 30 50 985 3.50000 133 -17.4693 121.217 TC 55 6 226
1996365S15137 1997 128 SI WA RACHEL 1997-01-05 21:00:00 TS -17.6187 121.094 main 106 106 P_____P_____P_ SH151997 -17.6075 121.050 55 0 -17.6412 121.182 30 53 981 133 -17.6075 121.050 TC 55 6 228
1996365S15137 1997 128 SI WA RACHEL 1997-01-05 22:00:00 TS -17.6830 121.011 55 980 bom main 117 117 P_____O_____P_ SH151997 -17.6745 120.967 55 0 -17.7000 121.100 30 55 980 4.00000 133 -17.6745 120.967 TC 55 6 238
1996365S15137 1997 128 SI WA RACHEL 1997-01-06 00:00:00 TS -17.7881 120.812 main 130 130 O_____P_____O_ jtwc_sh SH151997 -17.8000 120.800 55 0 -17.7642 120.836 30 58 976 133 -17.8000 120.800 TC 55 7 242
1996365S15137 1997 128 SI WA RACHEL 1997-01-06 01:00:00 TS -17.8371 120.711 60 975 bom main 138 131 P_____O_____P_ SH151997 -17.8557 120.717 55 0 -17.8000 120.700 30 60 975 4.00000 133 1010 -17.8557 120.717 TC 55 6 239
1996365S15137 1997 128 SI WA RACHEL 1997-01-06 03:00:00 TS -17.9476 120.529 main 148 143 P_____P_____P_ SH151997 -17.9575 120.550 57 0 -17.9279 120.487 30 63 971 133 -17.9575 120.550 TC 57 6 237
1996365S15137 1997 128 SI WA RACHEL 1997-01-06 04:00:00 TS -18.0036 120.444 65 970 bom main 152 148 P_____O_____P_ SH151997 -18.0054 120.467 58 0 -18.0000 120.400 40 65 970 4.50000 133 -18.0054 120.467 TC 58 6 234
1996365S15137 1997 128 SI WA RACHEL 1997-01-06 06:00:00 TS -18.1137 120.287 main 158 158 O_____P_____O_ jtwc_sh SH151997 -18.1000 120.300 60 0 -18.1412 120.261 40 68 966 133 -18.1000 120.300 TC 60 5 234
1996365S15137 1997 128 SI WA RACHEL 1997-01-06 07:00:00 TS -18.1631 120.213 70 965 bom main 164 164 P_____O_____P_ SH151997 -18.1447 120.219 61 0 -18.2000 120.200 40 70 965 4.50000 133 -18.1447 120.219 TC 61 5 239
1996365S15137 1997 128 SI WA RACHEL 1997-01-06 09:00:00 TS -18.2447 120.060 main 174 173 P_____P_____P_ SH151997 -18.2349 120.057 65 1 -18.2642 120.067 40 70 965 133 -18.2349 120.057 TC 65 5 240
1996365S15137 1997 128 SI WA RACHEL 1997-01-06 10:00:00 TS -18.2894 119.983 70 965 bom main 173 167 P_____O_____P_ SH151997 -18.2841 119.974 66 1 -18.3000 120.000 40 70 965 4.50000 133 -18.2841 119.974 TC 66 6 234
1996365S15137 1997 128 SI WA RACHEL 1997-01-06 12:00:00 TS -18.4067 119.825 main 172 162 O_____P_____O_ jtwc_sh SH151997 -18.4000 119.800 70 1 -18.4200 119.875 40 70 965 133 -18.4000 119.800 TC 70 6 231
1996365S15137 1997 128 SI WA RACHEL 1997-01-06 13:00:00 TS -18.4813 119.735 70 965 bom main 165 154 P_____O_____P_ SH151997 -18.4719 119.703 71 1 -18.5000 119.800 40 70 965 4.50000 133 -18.4719 119.703 TC 71 7 228
1996365S15137 1997 128 SI WA RACHEL 1997-01-06 15:00:00 TS -18.6549 119.533 main 148 148 P_____P_____P_ SH151997 -18.6350 119.500 75 1 -18.6946 119.598 40 70 965 133 -18.6350 119.500 TC 75 8 227
1996365S15137 1997 128 SI WA RACHEL 1997-01-06 16:00:00 TS -18.7483 119.432 70 965 bom main 151 133 P_____O_____P_ SH151997 -18.7225 119.398 76 1 -18.8000 119.500 40 70 965 4.50000 133 -18.7225 119.398 TC 76 8 223
1996365S15137 1997 128 SI WA RACHEL 1997-01-06 18:00:00 TS -18.9333 119.256 main 133 123 O_____P_____O_ jtwc_sh SH151997 -18.9000 119.200 80 1 -19.0000 119.369 40 70 965 133 -18.9000 119.200 TC 80 7 223
1996365S15137 1997 128 SI WA RACHEL 1997-01-06 19:00:00 TS -19.0187 119.167 70 965 bom main 123 101 P_____O_____P_ SH151997 -18.9781 119.100 80 1 -19.1000 119.300 40 70 965 4.50000 133 -18.9781 119.100 TC 80 7 225
1996365S15137 1997 128 SI WA RACHEL 1997-01-06 21:00:00 TS -19.1926 118.979 main 101 91 P_____P_____P_ SH151997 -19.1350 118.913 80 1 -19.3079 119.113 40 70 965 133 -19.1350 118.913 TC 80 7 226
1996365S15137 1997 128 SI WA RACHEL 1997-01-06 22:00:00 TS -19.2784 118.886 70 965 bom main 91 84 P_____O_____P_ SH151997 -19.2176 118.830 80 1 -19.4000 119.000 40 70 965 4.50000 133 -19.2176 118.830 TC 80 7 226
1996365S15137 1997 128 SI WA RACHEL 1997-01-07 00:00:00 TS -19.4463 118.705 main 88 79 O_____P_____O_ jtwc_sh SH151997 -19.4000 118.700 80 1 -19.5388 118.715 40 70 965 150 -19.4000 118.700 TC 80 7 222
1996365S15137 1997 128 SI WA RACHEL 1997-01-07 01:00:00 TS -19.5368 118.640 70 965 bom main 85 68 P_____O_____P_ SH151997 -19.5052 118.660 79 1 -19.6000 118.600 40 70 965 4.50000 160 1010 -19.5052 118.660 TC 79 6 203
1996365S15137 1997 128 SI WA RACHEL 1997-01-07 03:00:00 TS -19.7318 118.580 main 68 61 P_____P_____P_ SH151997 -19.7349 118.620 77 1 -19.7254 118.501 40 70 965 160 -19.7349 118.620 TC 77 6 191
1996365S15137 1997 128 SI WA RACHEL 1997-01-07 04:00:00 TS -19.8372 118.574 70 965 bom main 61 44 P_____O_____P_ SH151997 -19.8558 118.611 76 1 -19.8000 118.500 40 70 965 4.50000 160 -19.8558 118.611 TC 76 6 178
1996365S15137 1997 128 SI WA RACHEL 1997-01-07 06:00:00 TS -20.0530 118.590 main 33 22 O_____P_____O_ jtwc_sh SH151997 -20.1000 118.600 75 1 -19.9589 118.570 40 70 968 160 -20.1000 118.600 TC 75 7 176
1996365S15137 1997 128 SI WA RACHEL 1997-01-07 07:00:00 TS -20.1743 118.587 70 970 bom main 22 11 P_____O_____P_ SH151997 -20.2114 118.581 73 1 -20.1000 118.600 40 70 970 4.50000 160 -20.2114 118.581 TC 73 8 183
1996365S15137 1997 128 SI WA RACHEL 1997-01-07 08:00:00 TS -20.3150 118.574 70 970 bom main 11 0 P_____O_____P_ SH151997 -20.3225 118.561 71 1 -20.3000 118.600 40 70 970 160 3 -20.3225 118.561 TC 71 8 186
1996365S15137 1997 128 SI WA RACHEL 1997-01-07 09:00:00 TS -20.4442 118.562 main 0 0 P_____P_____P_ SH151997 -20.4350 118.543 70 1 -20.4625 118.600 40 65 972 160 -20.4350 118.543 TC 70 8 185
1996365S15137 1997 128 SI WA RACHEL 1997-01-07 10:00:00 TS -20.5672 118.550 60 975 bom main 0 0 P_____O_____P_ SH151997 -20.5509 118.525 68 1 -20.6000 118.600 30 60 975 160 -20.5509 118.525 TC 68 8 182
1996365S15137 1997 128 SI WA RACHEL 1997-01-07 12:00:00 TS -20.8233 118.533 main 0 0 O_____P_____O_ jtwc_sh SH151997 -20.8000 118.500 65 1 -20.8700 118.600 30 56 976 142 -20.8000 118.500 TC 65 8 0
1996365S15137 1997 128 SI WA RACHEL 1997-01-07 13:00:00 TS -20.9591 118.531 55 978 bom main 0 0 P_____O_____P_ SH151997 -20.9386 118.497 63 0 -21.0000 118.600 30 55 978 133 -20.9386 118.497 TC 63 8 182
1996365S15137 1997 128 SI WA RACHEL 1997-01-07 15:00:00 TS -21.2456 118.533 main 0 0 P_____P_____P_ SH151997 -21.2350 118.500 60 0 -21.2667 118.600 30 55 979 133 -21.2350 118.500 TC 60 9 0
1996365S15137 1997 128 SI WA RACHEL 1997-01-07 16:00:00 TS -21.3928 118.535 55 980 bom main 0 0 P_____O_____P_ SH151997 -21.3891 118.502 58 0 -21.4000 118.600 30 55 980 133 -21.3891 118.502 TC 58 9 0
1996365S15137 1997 128 SI WA RACHEL 1997-01-07 18:00:00 TS -21.6915 118.531 main 0 0 O_____P_____O_ jtwc_sh SH151997 -21.7000 118.500 55 0 -21.6746 118.592 30 48 983 133 -21.7000 118.500 TC 55 9 0
1996365S15137 1997 128 SI WA RACHEL 1997-01-07 19:00:00 TS -21.8333 118.521 45 985 bom main 0 0 P_____O_____P_ SH151997 -21.8500 118.481 53 0 -21.8000 118.600 30 45 985 133 -21.8500 118.481 TC 53 8 0
1996365S15137 1997 128 SI WA RACHEL 1997-01-07 21:00:00 TS -22.0992 118.511 main 0 0 P_____P_____P_ SH151997 -22.1500 118.435 50 0 -21.9975 118.661 30 45 986 133 -22.1500 118.435 TC 50 8 0
1996365S15137 1997 128 SI WA RACHEL 1997-01-07 22:00:00 TS -22.2333 118.510 45 988 bom main 0 0 P_____O_____P_ SH151997 -22.3000 118.415 48 0 -22.1000 118.700 30 45 988 133 -22.3000 118.415 TC 48 8 0
1996365S15137 1997 128 SI WA RACHEL 1997-01-08 00:00:00 TS -22.5204 118.522 main 0 0 O_____P_____O_ jtwc_sh SH151997 -22.6000 118.400 45 0 -22.3612 118.767 30 41 989 133 -22.6000 118.400 TC 45 9 175
1996365S15137 1997 128 SI WA RACHEL 1997-01-08 01:00:00 TS -22.6702 118.542 40 990 bom main 0 0 P_____O_____P_ SH151997 -22.7552 118.414 43 0 -22.5000 118.800 30 40 990 133 -22.7552 118.414 TC 43 9 171
1996365S15137 1997 128 SI WA RACHEL 1997-01-08 03:00:00 TS -22.9656 118.602 main 0 0 P_____P_____P_ SH151997 -23.0650 118.470 40 0 -22.7667 118.867 30 40 990 133 -23.0650 118.470 TC 40 9 169
1996365S15137 1997 128 SI WA RACHEL 1997-01-08 04:00:00 TS -23.1105 118.639 40 990 bom main 0 0 P_____O_____P_ SH151997 -23.2158 118.509 38 0 -22.9000 118.900 30 40 990 133 -23.2158 118.509 TC 38 9 165
1996365S15137 1997 128 SI WA RACHEL 1997-01-08 06:00:00 TS -23.3863 118.722 main 0 0 O_____P_____O_ jtwc_sh SH151997 -23.5000 118.600 35 0 -23.1588 118.967 30 36 991 133 -23.5000 118.600 TC 35 9 165
1996365S15137 1997 128 SI WA RACHEL 1997-01-08 07:00:00 TS -23.5205 118.759 35 993 bom main 0 0 P_____O_____P_ SH151997 -23.6307 118.639 34 0 -23.3000 119.000 30 35 993 133 -23.6307 118.639 TC 34 8 164
1996365S15137 1997 128 SI WA RACHEL 1997-01-08 09:00:00 TS -23.7909 118.841 main 0 0 P_____P_____P_ SH151997 -23.8724 118.728 32 -1 -23.6279 119.067 30 35 994 133 -23.8724 118.728 TC 32 8 163
1996365S15137 1997 128 SI WA RACHEL 1997-01-08 10:00:00 TS -23.9236 118.886 35 995 bom main 0 0 P_____O_____P_ SH151997 -23.9854 118.779 31 -1 -23.8000 119.100 30 35 995 133 -23.9854 118.779 TC 31 8 161
1996365S15137 1997 128 SI WA RACHEL 1997-01-08 12:00:00 TS -24.1804 118.986 main 0 0 O_____P_____O_ jtwc_sh SH151997 -24.2000 118.900 30 -1 -24.1412 119.159 30 35 995 133 -24.2000 118.900 TC 30 8 158
1996365S15137 1997 128 SI WA RACHEL 1997-01-08 13:00:00 TS -24.3021 119.050 35 995 bom main 0 0 P_____O_____P_ SH151997 -24.3031 118.975 30 -1 -24.3000 119.200 30 35 995 133 -24.3031 118.975 TC 30 8 150
1996365S15137 1997 128 SI WA RACHEL 1997-01-08 15:00:00 TS -24.5241 119.204 main 0 0 P_____P_____P_ SH151997 -24.5001 119.143 30 -1 -24.5721 119.328 30 35 995 133 -24.5001 119.143 TC 30 8 147
1996365S15137 1997 128 SI WA RACHEL 1997-01-08 16:00:00 TS -24.6317 119.287 35 995 bom main 0 0 P_____O_____P_ SH151997 -24.5976 119.230 30 -1 -24.7000 119.400 30 35 995 133 -24.5976 119.230 TC 30 8 147
1996365S15137 1997 128 SI WA RACHEL 1997-01-08 18:00:00 TS -24.8582 119.442 main 0 0 O_____P_____O_ jtwc_sh SH151997 -24.8000 119.400 30 -1 -24.9745 119.525 30 35 995 133 -24.8000 119.400 TC 30 8 149
1996365S15137 1997 128 SI WA RACHEL 1997-01-08 19:00:00 TS -24.9774 119.513 35 995 bom main 0 0 P_____O_____P_ SH151997 -24.9162 119.470 30 -1 -25.1000 119.600 30 35 995 133 -24.9162 119.470 TC 30 8 150
1996365S15137 1997 128 SI WA RACHEL 1997-01-08 21:00:00 TS -25.2067 119.662 main 0 0 P_____P_____P_ SH151997 -25.1574 119.600 30 -1 -25.3054 119.787 30 31 996 133 -25.1574 119.600 TC 30 8 148
1996365S15137 1997 128 SI WA RACHEL 1997-01-08 22:00:00 TS -25.3180 119.743 30 997 bom main 0 0 P_____O_____P_ SH151997 -25.2770 119.664 30 -1 -25.4000 119.900 20 30 997 133 -25.2770 119.664 TC 30 8 144
1996365S15137 1997 128 SI WA RACHEL 1997-01-09 00:00:00 TS -25.5351 119.921 main 0 0 O_____P_____O_ jtwc_sh SH151997 -25.5000 119.800 30 -1 -25.6052 120.163 20 30 997 133 -25.5000 119.800 TC 30 8 142
1996365S15137 1997 128 SI WA RACHEL 1997-01-09 01:00:00 TS -25.6298 120.017 30 997 bom main 0 0 P_____O_____P_ SH151997 -25.5947 119.875 30 -1 -25.7000 120.300 80 30 997 133 -25.5947 119.875 TC 30 7 135
1996365S15137 1997 128 SI WA RACHEL 1997-01-09 03:00:00 TS -25.7933 120.205 main 0 0 P_____P_____P_ SH151997 -25.7649 120.035 30 -1 -25.8501 120.544 80 30 997 133 -25.7649 120.035 TC 30 7 132
1996365S15137 1997 128 SI WA RACHEL 1997-01-09 06:00:00 TS -26.0117 120.496 main 0 0 O_____P_____O_ jtwc_sh SH151997 -26.0000 120.300 30 -1 -26.0350 120.887 80 30 997 133 -26.0000 120.300 TC 30 7 130
1996365S15137 1997 128 SI WA RACHEL 1997-01-09 07:00:00 TS -26.0854 120.598 30 998 bom main 0 0 P_____O_____P_ SH151997 -26.0781 120.397 30 -1 -26.1000 121.000 80 30 998 133 -26.0781 120.397 TC 30 7 129
1996365S15137 1997 128 SI WA RACHEL 1997-01-09 09:00:00 TS -26.2433 120.812 main 0 0 P_____P_____P_ SH151997 -26.2350 120.600 30 -1 -26.2600 121.235 80 28 999 133 -26.2350 120.600 TC 30 8 131
1996365S15137 1997 128 SI WA RACHEL 1997-01-09 12:00:00 TS -26.5051 121.128 main 0 0 O_____P_____O_ jtwc_sh SH151997 -26.5000 120.900 30 -1 -26.5154 121.585 80 25 1001 133 -26.5000 120.900 TC 30 8 134
1996365S15137 1997 128 SI WA RACHEL 1997-01-09 13:00:00 TS -26.6052 121.226 25 1002 bom main 0 0 P_____O_____P_ SH151997 -26.6078 120.989 29 -1 -26.6000 121.700 80 25 1002 133 -26.6078 120.989 TC 29 8 140
1996365S15137 1997 128 SI WA RACHEL 1997-01-09 15:00:00 TS -26.8161 121.413 main 0 0 P_____P_____P_ SH151997 -26.8424 121.158 27 -1 -26.7634 121.925 80 24 1002 133 -26.8424 121.158 TC 27 8 142
1996365S15137 1997 128 SI WA RACHEL 1997-01-09 18:00:00 TS -27.1318 121.685 main 0 0 O_____P_____O_ jtwc_sh SH151997 -27.2000 121.400 25 -1 -26.9954 122.255 80 22 1002 133 -27.2000 121.400 TC 25 8 145
1996365S15137 1997 128 SI WA RACHEL 1997-01-09 21:00:00 TS -27.4334 121.908 main 0 0 P_____P_____P_ SH151997 -27.5150 121.658 25 -1 -27.2159 122.576 80 21 1002 133 -27.5150 121.658 TC 25 7 148
1996365S15137 1997 128 SI WA RACHEL 1997-01-10 00:00:00 TS -27.7259 122.099 main 0 0 O_____P_____O_ jtwc_sh SH151997 -27.8000 121.900 25 -1 -27.4295 122.894 80 20 1002 133 -27.8000 121.900 TC 25 7 160
1996365S15137 1997 128 SI WA RACHEL 1997-01-10 01:00:00 TS -27.8481 122.082 20 1003 bom main 0 0 P_____O_____P_ SH151997 -27.8916 121.967 25 -1 -27.5000 123.000 80 20 1003 133 -27.8916 121.967 TC 25 7 0
1996365S15137 1997 128 SI WA RACHEL 1997-01-10 03:00:00 TS -28.0649 122.093 main 0 0 P___________P_ SH151997 -28.0649 122.093 25 -1 80 -28.0649 122.093 TC 25 6 157
1996365S15137 1997 128 SI WA RACHEL 1997-01-10 06:00:00 TS -28.3000 122.300 main 0 0 O___________O_ jtwc_sh SH151997 -28.3000 122.300 25 -1 80 -28.3000 122.300 TC 25 6 136
1996365S15137 1997 128 SI WA RACHEL 1997-01-10 09:00:00 TS -28.5075 122.585 main 0 0 P___________P_ SH151997 -28.5075 122.585 25 -1 80 -28.5075 122.585 TC 25 7 127
1996365S15137 1997 128 SI WA RACHEL 1997-01-10 12:00:00 TS -28.7000 122.900 main 0 0 O___________O_ jtwc_sh SH151997 -28.7000 122.900 25 -1 80 -28.7000 122.900 TC 25 7 127
1996365S15137 1997 128 SI WA RACHEL 1997-01-10 15:00:00 TS -28.9149 123.193 main 0 0 P___________P_ SH151997 -28.9149 123.193 25 -1 -28.9149 123.193 TC 25 7 127
1996365S15137 1997 128 SI WA RACHEL 1997-01-10 18:00:00 TS -29.1000 123.500 main 0 0 O___________O_ jtwc_sh SH151997 -29.1000 123.500 25 -1 -29.1000 123.500 TC 25 6 118
1996365S15137 1997 128 SI WA RACHEL 1997-01-10 21:00:00 TS -29.2150 123.843 main 0 0 P___________P_ SH151997 -29.2150 123.843 22 -1 -29.2150 123.843 TC 22 6 108
1996365S15137 1997 128 SI WA RACHEL 1997-01-11 00:00:00 TS -29.3000 124.200 main 0 0 O___________O_ jtwc_sh SH151997 -29.3000 124.200 20 -1 -29.3000 124.200 TC 20 6 107
1996365S15137 1997 128 SI WA RACHEL 1997-01-11 03:00:00 TS -29.4074 124.550 main 0 0 P___________P_ SH151997 -29.4074 124.550 20 -1 -29.4074 124.550 TC 20 6 108
1996365S15137 1997 128 SI WA RACHEL 1997-01-11 06:00:00 TS -29.5000 124.900 main 0 0 O___________O_ jtwc_sh SH151997 -29.5000 124.900 20 -1 -29.5000 124.900 TC 20 6 104
1996365S15137 1997 128 SI WA RACHEL 1997-01-11 09:00:00 TS -29.5602 125.250 main 0 0 P___________P_ SH151997 -29.5602 125.250 17 -1 -29.5602 125.250 TC 17 6 99
1996365S15137 1997 128 SI WA RACHEL 1997-01-11 12:00:00 TS -29.6000 125.600 main 0 O___________O_ jtwc_sh SH151997 -29.6000 125.600 15 -1 -29.6000 125.600 TC 15 6 97

デジタル台風データ・検索

IBTrACS Databaseについて

本データベースは、米国NOAAが公開する1842年以降の世界の熱帯低気圧のベストトラックデータアーカイブInternational Best Track Archive for Climate Stewardship (IBTrACS)を、ウェブで閲覧しやすい形式に変換したものです。

最終更新日:2021-12-03